createdAt,value
2023-08-10T00:01:33.552Z,13.10
2023-08-10T00:04:00.568Z,13.10
2023-08-10T00:06:27.388Z,13.00
2023-08-10T00:08:54.412Z,13.00
2023-08-10T00:11:22.152Z,13.00
2023-08-10T00:13:48.970Z,13.00
2023-08-10T00:16:15.819Z,13.00
2023-08-10T00:18:42.612Z,13.00
2023-08-10T00:21:09.541Z,12.90
2023-08-10T00:23:36.312Z,13.00
2023-08-10T00:26:03.316Z,13.00
2023-08-10T00:28:30.077Z,13.00
2023-08-10T00:30:56.860Z,13.00
2023-08-10T00:33:33.661Z,13.00
2023-08-10T00:36:08.234Z,13.00
2023-08-10T00:38:36.247Z,12.90
2023-08-10T00:41:03.565Z,12.90
2023-08-10T00:43:30.656Z,12.90
2023-08-10T00:45:58.608Z,12.80
2023-08-10T00:48:26.674Z,12.90
2023-08-10T00:50:55.147Z,12.80
2023-08-10T00:53:22.945Z,12.80
2023-08-10T00:55:52.664Z,12.70
2023-08-10T00:58:20.547Z,12.80
2023-08-10T01:00:48.676Z,12.70
2023-08-10T01:03:16.817Z,12.70
2023-08-10T01:05:51.382Z,12.70
2023-08-10T01:08:32.224Z,12.70
2023-08-10T01:11:22.724Z,12.70
2023-08-10T01:14:11.738Z,12.70
2023-08-10T01:16:42.873Z,12.70
2023-08-10T01:19:24.360Z,12.90
2023-08-10T01:22:21.499Z,12.70
2023-08-10T01:25:04.402Z,12.70
2023-08-10T01:27:32.365Z,12.70
2023-08-10T01:30:01.457Z,12.70
2023-08-10T01:32:30.777Z,12.60
2023-08-10T01:35:02.198Z,12.60
2023-08-10T01:37:31.362Z,12.60
2023-08-10T01:39:58.172Z,12.60
2023-08-10T01:42:26.113Z,12.60
2023-08-10T01:44:53.391Z,12.60
2023-08-10T01:47:33.168Z,12.60
2023-08-10T01:50:04.141Z,12.60
2023-08-10T01:52:48.284Z,12.50
2023-08-10T01:55:15.380Z,12.60
2023-08-10T01:57:42.420Z,12.60
2023-08-10T02:00:10.410Z,12.60
2023-08-10T02:02:37.510Z,12.60
2023-08-10T02:05:05.549Z,12.60
2023-08-10T02:07:32.432Z,12.60
2023-08-10T02:10:00.399Z,12.60
2023-08-10T02:12:28.190Z,12.60
2023-08-10T02:14:59.550Z,12.60
2023-08-10T02:17:29.917Z,12.60
2023-08-10T02:19:57.793Z,12.60
2023-08-10T02:22:24.859Z,12.60
2023-08-10T02:24:51.686Z,12.50
2023-08-10T02:27:19.181Z,12.50
2023-08-10T02:29:46.361Z,12.50
2023-08-10T02:32:17.637Z,12.50
2023-08-10T02:34:44.869Z,12.50
2023-08-10T02:37:11.762Z,12.50
2023-08-10T02:39:38.546Z,12.40
2023-08-10T02:42:05.679Z,12.30
2023-08-10T02:44:32.712Z,12.40
2023-08-10T02:47:00.606Z,12.40
2023-08-10T02:49:27.780Z,12.40
2023-08-10T02:51:54.940Z,12.40
2023-08-10T02:54:22.062Z,12.40
2023-08-10T02:56:49.262Z,12.40
2023-08-10T02:59:16.273Z,12.30
2023-08-10T03:01:46.666Z,12.40
2023-08-10T03:04:13.872Z,12.30
2023-08-10T03:06:41.032Z,12.30
2023-08-10T03:09:08.113Z,12.30
2023-08-10T03:11:35.414Z,12.30
2023-08-10T03:14:02.317Z,12.30
2023-08-10T03:16:31.131Z,12.30
2023-08-10T03:18:58.411Z,12.30
2023-08-10T03:21:25.340Z,12.30
2023-08-10T03:23:53.261Z,12.40
2023-08-10T03:26:20.358Z,12.30
2023-08-10T03:28:47.642Z,12.30
2023-08-10T03:31:15.069Z,12.20
2023-08-10T03:33:42.110Z,12.30
2023-08-10T03:36:09.061Z,12.30
2023-08-10T03:38:35.983Z,12.20
2023-08-10T03:41:02.844Z,12.20
2023-08-10T03:43:29.629Z,12.20
2023-08-10T03:45:56.458Z,12.20
2023-08-10T03:48:23.533Z,12.10
2023-08-10T03:50:50.848Z,12.20
2023-08-10T03:53:17.939Z,12.20
2023-08-10T03:55:44.791Z,12.20
2023-08-10T03:58:11.689Z,12.20
2023-08-10T04:00:38.505Z,12.20
2023-08-10T04:03:05.779Z,12.20
2023-08-10T04:05:32.790Z,12.20
2023-08-10T04:07:59.539Z,12.20
2023-08-10T04:10:26.543Z,12.30
2023-08-10T04:12:53.569Z,12.30
2023-08-10T04:15:20.446Z,12.30
2023-08-10T04:17:47.390Z,12.40
2023-08-10T04:20:15.441Z,12.30
2023-08-10T04:22:42.580Z,12.30
2023-08-10T04:25:09.734Z,12.30
2023-08-10T04:27:37.133Z,12.40
2023-08-10T04:30:05.377Z,12.40
2023-08-10T04:32:32.440Z,12.40
2023-08-10T04:34:59.494Z,12.50
2023-08-10T04:37:26.348Z,12.50
2023-08-10T04:39:53.199Z,12.50
2023-08-10T04:42:19.982Z,12.50
2023-08-10T04:44:46.923Z,12.60
2023-08-10T04:47:14.131Z,12.60
2023-08-10T04:49:41.252Z,12.70
2023-08-10T04:52:08.342Z,12.60
2023-08-10T04:54:35.138Z,12.70
2023-08-10T04:57:02.030Z,12.80
2023-08-10T04:59:28.843Z,12.80
2023-08-10T05:01:55.769Z,12.80
2023-08-10T05:04:22.840Z,12.90
2023-08-10T05:06:49.656Z,13.00
2023-08-10T05:09:16.809Z,13.00
2023-08-10T05:11:43.662Z,13.10
2023-08-10T05:14:10.450Z,13.20
2023-08-10T05:16:38.414Z,13.30
2023-08-10T05:19:05.817Z,13.40
2023-08-10T05:21:33.808Z,13.40
2023-08-10T05:24:00.694Z,13.50
2023-08-10T05:26:28.811Z,13.60
2023-08-10T05:28:55.925Z,13.70
2023-08-10T05:31:23.144Z,13.90
2023-08-10T05:33:50.276Z,13.90
2023-08-10T05:36:17.410Z,14.00
2023-08-10T05:38:44.520Z,14.00
2023-08-10T05:41:11.320Z,14.10
2023-08-10T05:43:38.099Z,14.20
2023-08-10T05:46:04.985Z,14.30
2023-08-10T05:48:31.846Z,14.30
2023-08-10T05:50:58.692Z,14.40
2023-08-10T05:53:25.476Z,14.50
2023-08-10T05:55:52.300Z,14.50
2023-08-10T05:58:19.139Z,14.50
2023-08-10T06:00:46.115Z,14.60
2023-08-10T06:03:13.024Z,14.60
2023-08-10T06:05:40.321Z,14.60
2023-08-10T06:08:08.476Z,14.70
2023-08-10T06:10:35.514Z,14.80
2023-08-10T06:13:03.289Z,14.80
2023-08-10T06:15:30.958Z,14.90
2023-08-10T06:17:58.380Z,14.90
2023-08-10T06:20:28.001Z,15.00
2023-08-10T06:22:55.556Z,15.10
2023-08-10T06:25:22.403Z,15.10
2023-08-10T06:27:50.823Z,15.20
2023-08-10T06:30:18.023Z,15.20
2023-08-10T06:32:44.909Z,15.30
2023-08-10T06:35:11.759Z,15.30
2023-08-10T06:37:38.911Z,15.30
2023-08-10T06:40:09.716Z,15.40
2023-08-10T06:42:39.633Z,15.50
2023-08-10T06:45:07.079Z,15.50
2023-08-10T06:47:34.422Z,15.60
2023-08-10T06:50:01.323Z,15.70
2023-08-10T06:52:28.183Z,15.80
2023-08-10T06:54:54.995Z,15.80
2023-08-10T06:57:22.446Z,15.90
2023-08-10T07:02:19.464Z,16.10
2023-08-10T07:04:47.081Z,16.20
2023-08-10T07:07:15.426Z,16.30
2023-08-10T07:09:43.458Z,16.40
2023-08-10T07:12:10.938Z,16.40
2023-08-10T07:14:38.088Z,16.50
2023-08-10T07:17:05.282Z,16.60
2023-08-10T07:19:32.361Z,16.60
2023-08-10T07:21:59.109Z,16.60
2023-08-10T07:24:26.638Z,16.80
2023-08-10T07:26:53.659Z,16.80
2023-08-10T07:29:20.431Z,16.90
2023-08-10T07:31:48.056Z,16.90
2023-08-10T07:34:14.861Z,17.00
2023-08-10T07:36:41.896Z,17.10
2023-08-10T07:39:08.739Z,17.20
2023-08-10T07:41:35.890Z,17.20
2023-08-10T07:44:02.710Z,17.40
2023-08-10T07:46:31.638Z,17.40
2023-08-10T07:48:58.464Z,17.50
2023-08-10T07:51:25.234Z,17.60
2023-08-10T07:53:52.046Z,17.70
2023-08-10T07:56:19.025Z,17.70
2023-08-10T07:58:45.781Z,17.90
2023-08-10T08:01:12.555Z,17.90
2023-08-10T08:03:39.461Z,18.00
2023-08-10T08:06:06.361Z,18.10
2023-08-10T08:08:33.153Z,18.10
2023-08-10T08:10:59.908Z,18.20
2023-08-10T08:13:27.060Z,18.30
2023-08-10T08:15:53.823Z,18.30
2023-08-10T08:18:49.738Z,18.40
2023-08-10T08:21:21.793Z,18.40
2023-08-10T08:23:49.490Z,18.50
2023-08-10T08:26:17.140Z,18.60
2023-08-10T08:28:45.229Z,18.60
2023-08-10T08:31:12.637Z,18.70
2023-08-10T08:33:42.568Z,18.70
2023-08-10T08:36:10.045Z,18.80
2023-08-10T08:38:38.593Z,18.90
2023-08-10T08:41:08.258Z,19.00
2023-08-10T08:43:36.037Z,19.10
2023-08-10T08:46:04.502Z,19.20
2023-08-10T08:48:32.028Z,19.30
2023-08-10T08:50:58.953Z,19.50
2023-08-10T08:53:26.507Z,19.60
2023-08-10T08:55:53.636Z,19.60
2023-08-10T08:58:20.564Z,19.70
2023-08-10T09:00:50.176Z,19.70
2023-08-10T09:03:25.933Z,19.70
2023-08-10T09:05:53.047Z,19.70
2023-08-10T09:08:21.192Z,19.60
2023-08-10T09:10:49.148Z,19.50
2023-08-10T09:13:18.634Z,19.40
2023-08-10T09:15:46.021Z,19.40
2023-08-10T09:18:12.921Z,19.40
2023-08-10T09:20:40.007Z,19.50
2023-08-10T09:23:06.984Z,19.50
2023-08-10T09:25:42.214Z,19.60
2023-08-10T09:28:12.368Z,19.70
2023-08-10T09:30:39.570Z,19.80
2023-08-10T09:33:06.754Z,19.90
2023-08-10T09:35:33.757Z,20.00
2023-08-10T09:38:05.186Z,20.00
2023-08-10T09:40:32.058Z,20.00
2023-08-10T09:42:58.887Z,20.00
2023-08-10T09:45:25.787Z,20.00
2023-08-10T09:47:52.600Z,20.10
2023-08-10T09:50:19.641Z,20.10
2023-08-10T09:52:47.507Z,20.20
2023-08-10T09:55:16.055Z,20.30
2023-08-10T09:57:46.288Z,20.40
2023-08-10T10:00:23.990Z,20.50
2023-08-10T10:02:51.775Z,20.70
2023-08-10T10:05:36.106Z,20.80
2023-08-10T10:08:05.501Z,20.80
2023-08-10T10:10:36.546Z,20.90
2023-08-10T10:13:06.493Z,21.00
2023-08-10T10:15:34.981Z,21.00
2023-08-10T10:18:02.092Z,21.10
2023-08-10T10:20:29.271Z,21.00
2023-08-10T10:22:56.337Z,21.10
2023-08-10T10:25:23.141Z,21.00
2023-08-10T10:27:53.302Z,21.00
2023-08-10T10:30:24.398Z,21.00
2023-08-10T10:32:52.183Z,21.00
2023-08-10T10:35:35.779Z,20.90
2023-08-10T10:38:05.048Z,20.90
2023-08-10T10:40:31.814Z,20.80
2023-08-10T10:43:04.474Z,20.80
2023-08-10T10:45:44.778Z,20.70
2023-08-10T10:48:15.049Z,20.70
2023-08-10T10:50:42.319Z,20.80
2023-08-10T10:53:12.673Z,20.80
2023-08-10T10:55:47.180Z,20.90
2023-08-10T10:58:15.614Z,21.00
2023-08-10T11:00:49.235Z,21.20
2023-08-10T11:03:19.637Z,21.30
2023-08-10T11:05:46.413Z,21.30
2023-08-10T11:08:15.920Z,21.40
2023-08-10T11:10:44.935Z,21.50
2023-08-10T11:13:12.257Z,21.60
2023-08-10T11:15:39.169Z,21.70
2023-08-10T11:18:13.551Z,21.70
2023-08-10T11:20:49.795Z,21.80
2023-08-10T11:23:16.810Z,21.80
2023-08-10T11:25:51.813Z,21.80
2023-08-10T11:28:21.912Z,21.90
2023-08-10T11:30:50.162Z,22.00
2023-08-10T11:35:53.232Z,22.20
2023-08-10T11:38:23.584Z,22.40
2023-08-10T11:40:51.206Z,22.50
2023-08-10T11:43:21.746Z,22.60
2023-08-10T11:45:49.544Z,22.80
2023-08-10T11:48:18.820Z,23.10
2023-08-10T11:50:46.788Z,23.30
2023-08-10T11:53:16.491Z,23.90
2023-08-10T11:55:45.814Z,24.60
2023-08-10T11:58:16.797Z,25.40
2023-08-10T12:00:48.449Z,26.00
2023-08-10T12:03:24.548Z,26.90
2023-08-10T12:05:54.298Z,27.90
2023-08-10T12:08:28.684Z,28.90
2023-08-10T12:11:07.139Z,29.80
2023-08-10T12:13:50.697Z,30.60
2023-08-10T12:16:20.096Z,31.40
2023-08-10T12:18:48.071Z,31.90
2023-08-10T12:21:15.119Z,31.90
2023-08-10T12:23:43.481Z,31.50
2023-08-10T12:26:12.844Z,31.10
2023-08-10T12:28:39.735Z,30.20
2023-08-10T12:31:07.241Z,29.50
2023-08-10T12:33:40.344Z,28.70
2023-08-10T12:36:07.922Z,27.90
2023-08-10T12:38:34.677Z,27.30
2023-08-10T12:41:02.085Z,26.60
2023-08-10T12:43:28.893Z,26.10
2023-08-10T12:45:55.774Z,26.10
2023-08-10T12:48:22.639Z,26.70
2023-08-10T12:50:50.143Z,27.30
2023-08-10T12:53:17.087Z,27.40
2023-08-10T12:55:43.839Z,27.40
2023-08-10T12:58:15.274Z,27.10
2023-08-10T13:00:42.285Z,26.70
2023-08-10T13:03:09.627Z,26.30
2023-08-10T13:05:36.648Z,25.90
2023-08-10T13:08:03.588Z,25.50
2023-08-10T13:10:30.461Z,25.30
2023-08-10T13:12:57.345Z,25.70
2023-08-10T13:15:24.241Z,26.50
2023-08-10T13:17:51.561Z,27.80
2023-08-10T13:20:18.476Z,29.20
2023-08-10T13:22:45.644Z,30.60
2023-08-10T13:25:12.548Z,31.80
2023-08-10T13:27:39.450Z,32.70
2023-08-10T13:30:06.986Z,33.60
2023-08-10T13:32:33.833Z,34.50
2023-08-10T13:35:00.793Z,35.20
2023-08-10T13:37:27.658Z,35.40
2023-08-10T13:39:54.412Z,34.70
2023-08-10T13:42:21.205Z,33.90
2023-08-10T13:44:47.993Z,33.10
2023-08-10T13:47:14.805Z,32.70
2023-08-10T13:49:54.499Z,32.40
2023-08-10T13:52:24.030Z,32.60
2023-08-10T13:54:51.167Z,32.70
2023-08-10T13:57:19.543Z,32.40
2023-08-10T13:59:47.480Z,32.00
2023-08-10T14:02:14.638Z,31.60
2023-08-10T14:04:41.480Z,31.50
2023-08-10T14:07:08.576Z,31.50
2023-08-10T14:09:35.401Z,31.90
2023-08-10T14:12:02.559Z,32.20
2023-08-10T14:14:30.781Z,32.60
2023-08-10T14:16:57.852Z,32.80
2023-08-10T14:19:24.764Z,33.10
2023-08-10T14:21:52.105Z,33.30
2023-08-10T14:24:19.249Z,33.10
2023-08-10T14:26:46.216Z,33.00
2023-08-10T14:29:13.053Z,32.20
2023-08-10T14:31:40.703Z,31.70
2023-08-10T14:34:07.665Z,30.90
2023-08-10T14:36:34.682Z,30.30
2023-08-10T14:39:01.549Z,30.10
2023-08-10T14:41:28.364Z,29.80
2023-08-10T14:43:55.686Z,29.70
2023-08-10T14:46:23.398Z,29.50
2023-08-10T14:48:51.938Z,29.40
2023-08-10T14:51:18.736Z,29.30
2023-08-10T14:53:45.549Z,29.40
2023-08-10T14:56:12.371Z,29.40
2023-08-10T14:58:39.163Z,29.40
2023-08-10T15:01:06.129Z,29.50
2023-08-10T15:03:32.963Z,29.60
2023-08-10T15:06:05.189Z,29.80
2023-08-10T15:08:32.123Z,29.90
2023-08-10T15:11:06.871Z,29.90
2023-08-10T15:13:35.328Z,30.10
2023-08-10T15:16:03.140Z,30.20
2023-08-10T15:18:30.209Z,30.40
2023-08-10T15:20:57.135Z,30.50
2023-08-10T15:23:41.140Z,30.30
2023-08-10T15:26:09.755Z,30.10
2023-08-10T15:28:39.805Z,30.00
2023-08-10T15:31:10.999Z,29.90
2023-08-10T15:33:39.188Z,29.90
2023-08-10T15:36:07.710Z,30.00
2023-08-10T15:38:34.580Z,30.10
2023-08-10T15:41:04.768Z,29.80
2023-08-10T15:43:31.718Z,29.80
2023-08-10T15:45:58.636Z,29.60
2023-08-10T15:48:25.426Z,29.70
2023-08-10T15:50:52.412Z,29.70
2023-08-10T15:55:50.104Z,29.50
2023-08-10T15:58:17.805Z,29.40
2023-08-10T16:00:45.131Z,29.30
2023-08-10T16:03:11.939Z,29.30
2023-08-10T16:05:40.057Z,29.20
2023-08-10T16:08:07.253Z,29.10
2023-08-10T16:10:34.342Z,29.00
2023-08-10T16:13:01.205Z,28.80
2023-08-10T16:15:28.018Z,28.60
2023-08-10T16:17:54.868Z,28.40
2023-08-10T16:20:21.869Z,28.20
2023-08-10T16:22:48.950Z,28.00
2023-08-10T16:25:16.766Z,27.80
2023-08-10T16:27:43.728Z,27.70
2023-08-10T16:30:10.955Z,27.40
2023-08-10T16:32:38.365Z,27.20
2023-08-10T16:35:06.022Z,27.00
2023-08-10T16:37:32.963Z,26.80
2023-08-10T16:39:59.735Z,26.60
2023-08-10T16:42:26.568Z,26.30
2023-08-10T16:44:53.369Z,26.10
2023-08-10T16:47:20.139Z,25.80
2023-08-10T16:49:46.928Z,25.50
2023-08-10T16:52:13.985Z,25.30
2023-08-10T16:54:41.650Z,25.10
2023-08-10T16:57:08.390Z,24.90
2023-08-10T16:59:35.128Z,24.70
2023-08-10T17:02:02.228Z,24.60
2023-08-10T17:04:29.118Z,24.40
2023-08-10T17:06:55.873Z,24.40
2023-08-10T17:09:23.005Z,24.20
2023-08-10T17:11:49.790Z,24.00
2023-08-10T17:14:16.545Z,23.90
2023-08-10T17:16:43.634Z,23.70
2023-08-10T17:19:10.428Z,23.50
2023-08-10T17:21:37.289Z,23.40
2023-08-10T17:24:04.425Z,23.20
2023-08-10T17:26:31.778Z,23.10
2023-08-10T17:29:06.216Z,23.00
2023-08-10T17:31:41.395Z,22.90
2023-08-10T17:34:08.584Z,22.70
2023-08-10T17:36:35.446Z,22.60
2023-08-10T17:39:02.287Z,22.50
2023-08-10T17:41:29.094Z,22.40
2023-08-10T17:43:55.873Z,22.30
2023-08-10T17:46:27.056Z,22.20
2023-08-10T17:48:54.611Z,22.10
2023-08-10T17:51:21.477Z,22.10
2023-08-10T17:53:48.321Z,22.00
2023-08-10T17:56:15.072Z,21.90
2023-08-10T18:01:12.972Z,21.70
2023-08-10T18:03:41.971Z,21.70
2023-08-10T18:06:08.998Z,21.80
2023-08-10T18:13:30.666Z,21.40
2023-08-10T18:23:19.713Z,21.10
2023-08-10T18:25:46.539Z,21.00
2023-08-10T18:28:13.340Z,21.10
2023-08-10T18:30:40.512Z,20.90
2023-08-10T18:33:07.687Z,21.00
2023-08-10T18:35:34.582Z,20.90
2023-08-10T18:40:41.740Z,20.70
2023-08-10T18:43:09.248Z,20.60
2023-08-10T18:45:36.795Z,20.50
2023-08-10T18:48:05.128Z,20.50
2023-08-10T18:50:32.444Z,20.30
2023-08-10T18:57:54.992Z,20.20
2023-08-10T19:00:22.418Z,20.20
2023-08-10T19:07:47.707Z,20.00
2023-08-10T19:12:42.016Z,19.70
2023-08-10T19:20:03.787Z,19.40
2023-08-10T19:27:25.153Z,19.10
2023-08-10T19:37:13.966Z,19.00
2023-08-10T19:39:40.719Z,18.90
2023-08-10T19:59:19.882Z,18.40
2023-08-10T20:01:47.165Z,18.30
2023-08-10T20:04:14.189Z,18.40
2023-08-10T20:14:07.035Z,18.20
2023-08-10T20:16:33.898Z,17.70
2023-08-10T20:21:28.399Z,18.00
2023-08-10T20:28:50.353Z,17.80
2023-08-10T20:31:18.098Z,18.20
2023-08-10T20:33:45.789Z,17.50
2023-08-10T20:36:12.681Z,17.50
2023-08-10T20:41:06.901Z,17.30
2023-08-10T20:46:18.331Z,17.10
2023-08-10T20:48:45.265Z,17.10
2023-08-10T20:53:41.097Z,17.10
2023-08-10T20:58:37.715Z,17.30
2023-08-10T21:01:06.853Z,16.80
2023-08-10T21:03:38.534Z,17.00
2023-08-10T21:06:05.960Z,17.10
2023-08-10T21:08:33.907Z,17.00
2023-08-10T21:11:00.917Z,17.00
2023-08-10T21:13:28.899Z,17.00
2023-08-10T21:15:56.058Z,16.80
2023-08-10T21:23:23.032Z,16.70
2023-08-10T21:25:51.398Z,16.70
2023-08-10T21:28:19.638Z,16.80
2023-08-10T21:30:46.890Z,16.70
2023-08-10T21:50:27.419Z,16.50
2023-08-10T21:52:54.295Z,16.20
2023-08-10T22:00:18.475Z,16.30
2023-08-10T22:05:13.180Z,16.30
2023-08-10T22:07:40.323Z,16.40
2023-08-10T22:10:07.587Z,16.10
2023-08-10T22:12:36.959Z,16.20
2023-08-10T22:17:31.339Z,16.00
2023-08-10T22:22:25.649Z,15.90
2023-08-10T22:27:19.926Z,15.70
2023-08-10T22:37:09.109Z,15.80
2023-08-10T22:39:36.112Z,15.80
2023-08-10T22:49:26.101Z,15.60
2023-08-10T22:59:16.647Z,15.50
2023-08-10T23:09:11.716Z,15.30
2023-08-10T23:14:06.614Z,15.30
2023-08-10T23:19:02.902Z,15.20
2023-08-10T23:26:25.113Z,15.20
